Time;durP1;ratioP1;P1;durP2;ratioP2;P2;SDS_P1;SDS_P2;PMS_P1;PMS_P2;Temp;Humidity;BMP_temperature;BMP_pressure;BME280_temperature;BME280_humidity;BME280_pressure;Samples;Min_cycle;Max_cycle;Signal;HPM_P1;HPM_P2
2021/12/18 00:00:22;;;;;;;19.20;11.15;;;;;;;0.96;72.07;95530.25;5009687;28;20034;-64
2021/12/18 00:02:48;;;;;;;16.10;9.20;;;;;;;0.61;71.57;95473.28;5009224;28;20436;-63
2021/12/18 00:05:13;;;;;;;17.80;11.18;;;;;;;0.92;72.05;95524.41;5009474;28;20018;-63
2021/12/18 00:07:39;;;;;;;16.92;10.98;;;;;;;0.84;71.72;95509.28;5009599;28;20105;-63
2021/12/18 00:10:05;;;;;;;16.13;9.18;;;;;;;0.85;71.31;95505.88;5009283;28;20026;-62
2021/12/18 00:12:31;;;;;;;17.65;10.05;;;;;;;1.00;71.19;95530.19;5009422;28;20087;-62
2021/12/18 00:14:56;;;;;;;20.50;10.13;;;;;;;0.88;71.80;95515.97;5007447;28;20467;-63
2021/12/18 00:17:22;;;;;;;18.20;10.48;;;;;;;1.00;71.17;95514.09;5009427;28;20029;-65
2021/12/18 00:19:47;;;;;;;13.98;9.07;;;;;;;1.24;71.11;95553.47;5009321;28;20034;-64
2021/12/18 00:22:13;;;;;;;15.20;9.30;;;;;;;1.05;71.15;95525.84;5009230;28;20045;-63
2021/12/18 00:24:38;;;;;;;17.95;9.70;;;;;;;1.14;70.92;95557.03;5009026;28;20034;-64
2021/12/18 00:27:04;;;;;;;17.42;10.10;;;;;;;1.23;71.04;95561.94;5009075;28;20396;-64
2021/12/18 00:29:30;;;;;;;18.42;10.23;;;;;;;1.29;70.27;95569.47;5009172;28;20460;-68
2021/12/18 00:31:55;;;;;;;17.30;10.85;;;;;;;1.36;70.19;95570.19;5009258;28;20542;-62
2021/12/18 00:34:21;;;;;;;17.17;10.93;;;;;;;1.00;70.50;95509.00;5023967;28;20034;-61
2021/12/18 00:36:47;;;;;;;15.20;9.57;;;;;;;1.19;69.77;95530.66;5008545;28;20034;-65
2021/12/18 00:39:15;;;;;;;17.05;11.10;;;;;;;0.89;69.71;95481.28;5009279;28;20077;-75
2021/12/18 00:44:24;;;;;;;15.82;9.32;;;;;;;1.17;70.66;95555.28;5009094;28;20040;-63
2021/12/18 00:46:50;;;;;;;14.75;8.55;;;;;;;1.01;70.95;95541.16;5008847;28;20022;-67
2021/12/18 00:49:18;;;;;;;16.38;9.70;;;;;;;1.04;70.84;95558.91;5008518;28;20042;-66
2021/12/18 00:51:44;;;;;;;17.13;11.18;;;;;;;0.75;71.47;95534.00;5008279;28;20029;-69
2021/12/18 00:54:10;;;;;;;16.17;9.70;;;;;;;0.55;71.19;95497.91;5008227;28;20062;-65
2021/12/18 00:56:35;;;;;;;17.55;11.50;;;;;;;0.93;71.37;95566.69;5008222;28;20041;-62
2021/12/18 00:59:01;;;;;;;16.63;10.38;;;;;;;0.99;71.03;95561.50;5008296;28;20512;-68
2021/12/18 01:01:31;;;;;;;14.27;9.38;;;;;;;0.49;71.20;95492.94;5007775;28;20076;-66
2021/12/18 01:03:57;;;;;;;15.27;10.40;;;;;;;0.84;71.34;95552.44;5008310;28;20033;-66
2021/12/18 01:06:23;;;;;;;14.90;9.27;;;;;;;0.82;71.16;95553.31;5008352;28;20038;-64
2021/12/18 01:08:54;;;;;;;13.30;9.52;;;;;;;0.73;70.71;95534.00;5008743;28;20065;-62
2021/12/18 01:14:26;;;;;;;14.90;9.45;;;;;;;0.86;71.23;95567.66;5007859;28;20015;-63
2021/12/18 01:25:06;;;;;;;14.65;8.88;;;;;;;0.63;71.17;95543.47;5024912;28;20103;-65
2021/12/18 01:27:32;;;;;;;12.30;8.20;;;;;;;0.73;71.36;95560.22;5024911;28;20041;-66
2021/12/18 01:29:57;;;;;;;17.45;10.60;;;;;;;0.50;71.46;95529.31;5025139;28;20195;-63
2021/12/18 01:32:24;;;;;;;16.52;9.65;;;;;;;0.67;70.94;95542.56;5024950;28;20045;-65
2021/12/18 01:34:50;;;;;;;15.55;9.65;;;;;;;0.16;70.72;95474.84;5025225;28;20112;-64
2021/12/18 01:37:15;;;;;;;10.52;6.75;;;;;;;0.66;70.93;95551.03;5024554;28;20112;-64
2021/12/18 01:39:42;;;;;;;14.82;8.68;;;;;;;0.63;70.82;95537.56;5025287;28;20049;-64
2021/12/18 01:52:55;;;;;;;15.90;11.13;;;;;;;0.70;70.50;95532.34;5025415;28;20072;-62
2021/12/18 01:55:27;;;;;;;14.80;10.30;;;;;;;0.91;70.77;95561.63;5008518;28;20029;-63
2021/12/18 01:57:53;;;;;;;14.80;9.27;;;;;;;0.48;70.55;95486.19;5019712;28;20119;-63
2021/12/18 02:00:22;;;;;;;14.13;9.60;;;;;;;0.71;70.69;95512.91;5011340;28;20030;-64
2021/12/18 02:02:48;;;;;;;18.40;9.68;;;;;;;1.04;70.49;95558.91;5011292;28;20021;-63
2021/12/18 02:05:14;;;;;;;15.50;9.25;;;;;;;1.08;70.32;95548.66;5011537;28;20037;-67
2021/12/18 02:07:41;;;;;;;14.07;8.68;;;;;;;0.78;69.89;95494.16;5011537;28;20418;-63
2021/12/18 02:10:15;;;;;;;13.95;9.75;;;;;;;1.07;69.86;95556.31;5011128;28;20447;-63
2021/12/18 02:13:04;;;;;;;15.60;10.23;;;;;;;1.07;70.57;95548.69;5011099;28;20091;-66
2021/12/18 02:21:10;;;;;;;16.63;9.50;;;;;;;0.98;70.01;95552.19;5011557;28;20036;-62
2021/12/18 02:23:40;;;;;;;16.52;9.82;;;;;;;0.88;70.27;95554.06;5011695;28;20164;-63
2021/12/18 02:26:06;;;;;;;16.85;9.23;;;;;;;0.78;70.95;95550.00;5010424;28;20099;-63
2021/12/18 02:28:31;;;;;;;16.15;9.73;;;;;;;0.68;71.51;95551.03;5011229;28;20037;-63
2021/12/18 02:30:58;;;;;;;17.02;9.60;;;;;;;-0.25;71.38;95407.81;5011178;28;20366;-64
2021/12/18 02:33:26;;;;;;;14.65;9.57;;;;;;;0.36;71.41;95496.50;5011112;28;20037;-66
2021/12/18 02:35:54;;;;;;;17.48;10.52;;;;;;;0.76;71.51;95550.91;5026149;28;20502;-60
2021/12/18 02:38:56;;;;;;;13.52;9.45;;;;;;;0.78;72.36;95552.53;5010561;28;20022;-66
2021/12/18 02:43:56;;;;;;;16.15;10.90;;;;;;;0.52;73.05;95537.72;5011657;28;20042;-66
2021/12/18 02:46:22;;;;;;;17.15;9.68;;;;;;;0.60;72.63;95555.38;5025898;28;20028;-65
2021/12/18 02:48:50;;;;;;;18.02;11.23;;;;;;;0.66;72.40;95563.72;5010349;28;20412;-67
2021/12/18 02:51:17;;;;;;;15.05;11.13;;;;;;;0.52;72.67;95525.84;5010362;28;20037;-64
2021/12/18 02:53:46;;;;;;;14.75;9.98;;;;;;;0.27;71.70;95487.34;5025671;28;20029;-65
2021/12/18 02:56:12;;;;;;;12.25;8.77;;;;;;;0.79;72.27;95564.38;5010385;28;20520;-66
2021/12/18 02:58:45;;;;;;;17.63;10.05;;;;;;;0.85;71.37;95564.28;5010403;28;20378;-65
2021/12/18 03:01:13;;;;;;;15.65;10.30;;;;;;;0.91;71.77;95565.88;5009986;28;20095;-63
2021/12/18 03:03:41;;;;;;;12.38;8.75;;;;;;;0.91;71.50;95576.03;5010375;28;20018;-63
2021/12/18 03:09:29;;;;;;;13.98;9.73;;;;;;;0.87;70.94;95544.78;5009774;28;20442;-65
2021/12/18 03:25:04;;;;;;;15.23;10.25;;;;;;;1.21;72.65;95568.75;5009262;28;20121;-65
2021/12/18 03:27:30;;;;;;;15.85;9.52;;;;;;;1.06;73.73;95554.63;5009955;28;20034;-64
2021/12/18 03:29:55;;;;;;;16.17;9.60;;;;;;;0.91;74.47;95545.56;5009879;28;20036;-64
2021/12/18 03:32:22;;;;;;;17.08;10.23;;;;;;;1.00;74.95;95582.66;5009687;28;20442;-65
2021/12/18 03:34:50;;;;;;;16.38;10.70;;;;;;;1.01;75.20;95587.72;5009857;28;20030;-64
2021/12/18 03:37:15;;;;;;;15.82;9.60;;;;;;;1.05;75.34;95591.03;5009077;28;20133;-65
2021/12/18 03:39:43;;;;;;;17.08;10.55;;;;;;;0.90;76.53;95580.28;5009589;28;20028;-65
2021/12/18 03:42:09;;;;;;;14.77;10.07;;;;;;;0.50;77.37;95527.59;5009868;28;20529;-66
2021/12/18 03:44:35;;;;;;;13.98;10.02;;;;;;;0.79;78.48;95592.31;5009601;28;20032;-69
2021/12/18 03:47:01;;;;;;;15.88;11.07;;;;;;;0.58;79.57;95578.25;5010094;28;20045;-66
2021/12/18 03:49:26;;;;;;;17.02;10.10;;;;;;;0.30;79.70;95543.13;5009044;28;20478;-65
2021/12/18 03:51:52;;;;;;;14.98;10.52;;;;;;;0.56;80.69;95597.75;5009606;28;20125;-66
2021/12/18 03:54:18;;;;;;;14.65;10.13;;;;;;;-0.14;80.57;95505.72;5009404;28;20408;-64
2021/12/18 03:56:43;;;;;;;17.90;10.73;;;;;;;0.39;81.20;95604.75;5009257;28;20057;-66
2021/12/18 03:59:09;;;;;;;15.35;9.43;;;;;;;0.42;80.93;95607.25;5009465;28;20472;-68
2021/12/18 04:01:34;;;;;;;17.20;11.30;;;;;;;0.40;81.88;95609.78;5009121;28;20030;-64
2021/12/18 04:04:00;;;;;;;21.92;12.50;;;;;;;0.28;81.79;95589.66;5009502;28;20088;-65
2021/12/18 04:06:25;;;;;;;19.15;11.82;;;;;;;0.36;82.15;95601.41;5009426;28;20030;-65
2021/12/18 04:08:51;;;;;;;20.83;11.02;;;;;;;0.20;81.17;95561.00;5009461;28;20108;-65
2021/12/18 04:11:17;;;;;;;19.63;11.48;;;;;;;-0.01;81.00;95523.25;5009188;28;20552;-64
2021/12/18 04:13:45;;;;;;;22.80;13.00;;;;;;;0.24;81.02;95555.88;5009112;28;20042;-65
2021/12/18 04:16:13;;;;;;;22.35;13.55;;;;;;;0.40;80.48;95556.50;5009288;28;20460;-65
2021/12/18 04:18:38;;;;;;;18.13;11.90;;;;;;;0.78;80.48;95603.31;5008676;28;20065;-66
2021/12/18 04:21:04;;;;;;;17.90;10.50;;;;;;;0.65;78.96;95569.66;5008780;28;20570;-67
2021/12/18 04:23:30;;;;;;;20.67;11.00;;;;;;;0.75;78.51;95593.22;5008008;28;20057;-65
2021/12/18 04:25:56;;;;;;;17.73;11.35;;;;;;;0.57;79.56;95557.97;5008610;28;20028;-67
2021/12/18 04:28:22;;;;;;;22.27;12.13;;;;;;;0.81;80.01;95610.88;5009311;28;20033;-66
2021/12/18 04:30:48;;;;;;;18.40;10.80;;;;;;;0.66;79.27;95598.44;5008987;28;20030;-67
2021/12/18 04:33:14;;;;;;;18.80;11.50;;;;;;;0.61;79.10;95587.50;5009072;28;20040;-66
2021/12/18 04:35:39;;;;;;;14.55;9.43;;;;;;;0.71;78.77;95609.34;5008941;28;20057;-69
2021/12/18 04:38:05;;;;;;;16.25;10.55;;;;;;;-0.15;78.69;95479.50;5008644;28;20038;-69
2021/12/18 04:40:30;;;;;;;18.08;11.75;;;;;;;0.68;78.64;95622.09;5008681;28;20030;-68
2021/12/18 04:42:56;;;;;;;19.73;11.88;;;;;;;0.33;78.88;95573.53;5009085;28;20065;-73
2021/12/18 04:45:23;;;;;;;19.13;11.60;;;;;;;0.69;79.07;95621.25;5009034;28;20025;-67
2021/12/18 04:47:49;;;;;;;19.45;10.77;;;;;;;0.73;77.33;95602.56;5008945;28;20032;-68
2021/12/18 04:50:15;;;;;;;15.23;10.18;;;;;;;0.35;76.44;95548.13;5008239;28;20026;-66
2021/12/18 04:52:40;;;;;;;16.17;9.55;;;;;;;0.84;75.92;95615.94;5008679;28;20057;-67
2021/12/18 04:55:07;;;;;;;14.32;9.63;;;;;;;0.97;75.79;95628.41;5008548;28;20052;-66
2021/12/18 04:57:32;;;;;;;15.98;10.73;;;;;;;0.55;74.89;95558.81;5008407;28;20046;-67
2021/12/18 04:59:58;;;;;;;10.13;7.10;;;;;;;0.23;74.31;95531.41;5008633;28;20104;-66
2021/12/18 05:02:34;;;;;;;13.10;8.98;;;;;;;0.91;74.54;95639.53;5022738;28;20099;-66
2021/12/18 05:04:59;;;;;;;12.90;8.10;;;;;;;0.74;74.10;95632.16;5007154;28;20042;-67
2021/12/18 05:07:27;;;;;;;14.52;9.05;;;;;;;0.62;74.86;95622.19;5008390;28;20029;-66
2021/12/18 05:09:52;;;;;;;13.35;8.10;;;;;;;0.54;74.54;95638.38;5008389;28;20034;-65
2021/12/18 05:12:17;;;;;;;15.10;8.90;;;;;;;0.61;75.13;95663.63;5008365;28;20064;-65
2021/12/18 05:14:43;;;;;;;12.80;7.57;;;;;;;0.53;75.25;95658.69;5007738;28;20083;-66
2021/12/18 05:17:08;;;;;;;14.65;9.10;;;;;;;0.49;75.41;95668.03;5008512;28;20033;-65
2021/12/18 05:19:34;;;;;;;16.23;11.60;;;;;;;0.46;76.08;95670.63;5008281;28;20036;-64
2021/12/18 05:21:59;;;;;;;17.50;9.10;;;;;;;0.46;75.94;95664.69;5008299;28;20026;-64
2021/12/18 05:24:25;;;;;;;15.55;9.50;;;;;;;0.16;75.88;95634.63;5008361;28;20018;-66
2021/12/18 05:26:50;;;;;;;18.02;11.38;;;;;;;0.34;75.61;95665.69;5008085;28;20029;-65
2021/12/18 05:29:16;;;;;;;14.07;9.38;;;;;;;0.31;75.27;95661.50;5007259;28;20037;-62
2021/12/18 05:31:41;;;;;;;20.33;11.95;;;;;;;0.25;75.09;95651.44;5011325;28;20026;-65
2021/12/18 05:34:07;;;;;;;15.93;9.77;;;;;;;0.50;75.09;95692.53;5012189;28;20060;-64
2021/12/18 05:39:16;;;;;;;17.08;8.73;;;;;;;0.57;74.43;95695.00;5011747;28;20037;-66
2021/12/18 05:41:42;;;;;;;14.05;9.82;;;;;;;0.60;74.29;95692.44;5012020;28;20113;-66
2021/12/18 05:44:07;;;;;;;13.55;8.35;;;;;;;0.60;74.96;95687.34;5012087;28;20092;-64
2021/12/18 05:46:34;;;;;;;13.77;9.65;;;;;;;0.53;74.14;95677.28;5012033;28;20026;-64
2021/12/18 05:49:00;;;;;;;17.13;9.55;;;;;;;0.63;74.17;95700.84;5011642;28;20389;-65
2021/12/18 05:51:25;;;;;;;11.80;8.25;;;;;;;0.50;73.83;95682.38;5011739;28;20088;-67
2021/12/18 05:53:51;;;;;;;13.52;8.05;;;;;;;0.43;73.56;95664.75;5027054;28;20069;-65
2021/12/18 05:56:16;;;;;;;12.57;8.15;;;;;;;0.66;74.37;95699.97;5012009;28;20208;-66
2021/12/18 05:58:43;;;;;;;15.55;9.20;;;;;;;0.72;73.18;95697.34;5011514;28;20127;-65
2021/12/18 06:01:10;;;;;;;17.55;9.57;;;;;;;0.76;73.54;95698.97;5011681;28;20030;-66
2021/12/18 06:03:36;;;;;;;15.13;9.25;;;;;;;0.77;73.79;95699.81;5011851;28;20026;-66
2021/12/18 06:06:01;;;;;;;15.50;9.50;;;;;;;0.78;73.90;95707.41;5011579;28;20033;-66
2021/12/18 06:08:27;;;;;;;16.05;9.85;;;;;;;0.81;73.76;95715.00;5011501;28;20030;-66
2021/12/18 06:10:52;;;;;;;16.08;10.15;;;;;;;0.81;74.76;95712.44;5011389;28;20037;-67
2021/12/18 06:13:18;;;;;;;13.95;8.38;;;;;;;0.52;74.93;95662.91;5026011;28;20073;-69
2021/12/18 06:15:44;;;;;;;19.83;11.82;;;;;;;0.51;75.25;95668.84;5011303;28;20057;-67
2021/12/18 06:18:09;;;;;;;15.07;8.55;;;;;;;0.90;75.57;95724.16;5011233;28;20030;-55
2021/12/18 06:20:35;;;;;;;16.00;9.13;;;;;;;0.81;79.15;95687.06;5011621;28;20026;-52
2021/12/18 06:23:00;;;;;;;14.10;8.45;;;;;;;0.26;78.11;95553.31;5007116;28;20022;-56
2021/12/18 06:25:26;;;;;;;15.48;8.73;;;;;;;1.55;77.52;95718.97;5007722;28;20038;-52
2021/12/18 06:27:51;;;;;;;14.93;8.88;;;;;;;1.35;74.48;95706.56;5007999;28;20168;-58
2021/12/18 06:30:18;;;;;;;15.88;8.70;;;;;;;1.55;73.10;95739.28;5008495;28;20494;-45
2021/12/18 06:32:44;;;;;;;16.10;8.90;;;;;;;1.46;72.75;95742.81;5007699;28;20056;-50
2021/12/18 06:35:10;;;;;;;14.32;9.02;;;;;;;1.36;73.86;95750.59;5008193;28;20053;-46
2021/12/18 06:37:36;;;;;;;13.40;9.35;;;;;;;1.29;74.16;95748.16;5007425;28;20034;-52
2021/12/18 06:40:03;;;;;;;16.05;9.60;;;;;;;1.27;74.72;95754.13;5008091;28;20070;-56
2021/12/18 06:42:28;;;;;;;18.55;11.27;;;;;;;1.17;74.57;95740.72;5006449;28;20503;-64
2021/12/18 06:44:54;;;;;;;15.98;11.15;;;;;;;1.21;74.64;95757.59;5008173;28;20108;-57
2021/12/18 06:47:19;;;;;;;16.40;10.15;;;;;;;1.00;75.07;95737.56;5007510;28;20402;-55
2021/12/18 06:49:45;;;;;;;20.23;11.20;;;;;;;1.06;75.62;95750.19;5007425;28;20083;-57
2021/12/18 06:52:10;;;;;;;21.52;11.73;;;;;;;0.98;76.47;95757.09;5007825;28;20138;-58
2021/12/18 06:54:36;;;;;;;13.18;9.32;;;;;;;0.93;76.93;95764.75;5007194;28;20038;-58
2021/12/18 06:57:02;;;;;;;18.65;10.43;;;;;;;0.83;77.25;95773.38;5007722;28;20321;-63
2021/12/18 06:59:28;;;;;;;15.07;11.07;;;;;;;0.70;77.80;95770.97;5010348;28;20095;-57
2021/12/18 07:01:53;;;;;;;21.27;12.15;;;;;;;0.69;78.28;95779.47;5008904;28;20030;-53
2021/12/18 07:04:20;;;;;;;20.08;12.05;;;;;;;0.76;78.72;95780.22;5010781;28;20544;-57
2021/12/18 07:06:45;;;;;;;20.05;12.30;;;;;;;0.80;78.00;95786.94;5008110;28;20034;-58
2021/12/18 07:09:11;;;;;;;16.08;10.18;;;;;;;0.85;78.19;95784.34;5010545;28;20073;-56
2021/12/18 07:11:36;;;;;;;21.05;11.82;;;;;;;0.76;77.71;95765.00;5010279;28;20030;-58
2021/12/18 07:14:02;;;;;;;22.95;12.73;;;;;;;0.94;77.16;95778.31;5010091;28;20370;-59
2021/12/18 07:16:28;;;;;;;20.73;12.25;;;;;;;1.05;77.19;95779.00;5010351;28;20415;-59
2021/12/18 07:18:53;;;;;;;18.95;13.27;;;;;;;1.32;76.48;95785.41;5010362;28;20026;-56
2021/12/18 07:21:18;;;;;;;19.45;13.00;;;;;;;1.55;75.11;95792.69;5010447;28;20056;-56
2021/12/18 07:23:44;;;;;;;16.60;11.18;;;;;;;1.71;74.37;95787.38;5010026;28;20481;-60
2021/12/18 07:26:12;;;;;;;17.30;12.10;;;;;;;1.77;73.27;95788.09;5009694;28;20061;-58
2021/12/18 07:28:37;;;;;;;17.52;10.93;;;;;;;1.71;72.37;95795.00;5009590;28;20111;-65
2021/12/18 07:31:03;;;;;;;19.80;12.35;;;;;;;1.70;73.72;95798.41;5009587;28;20038;-59
2021/12/18 07:33:28;;;;;;;19.65;12.18;;;;;;;1.78;73.75;95804.19;5010116;28;20026;-55
2021/12/18 07:35:54;;;;;;;23.50;12.30;;;;;;;2.03;72.84;95789.34;5010090;28;20049;-58
2021/12/18 07:38:19;;;;;;;22.05;14.23;;;;;;;2.00;72.80;95767.38;5009620;28;20073;-55
2021/12/18 07:40:45;;;;;;;20.40;13.88;;;;;;;2.14;71.41;95782.38;5009864;28;20022;-60
2021/12/18 07:43:10;;;;;;;17.70;12.23;;;;;;;2.26;71.09;95801.66;5009884;28;20022;-55
2021/12/18 07:45:36;;;;;;;20.33;13.82;;;;;;;2.24;70.98;95803.41;5009391;28;20026;-55
2021/12/18 07:48:02;;;;;;;20.33;13.70;;;;;;;2.47;70.31;95805.53;5010100;28;20064;-58
2021/12/18 07:50:28;;;;;;;26.13;14.38;;;;;;;2.25;70.50;95788.97;5009410;28;20022;-55
2021/12/18 07:52:53;;;;;;;20.50;13.73;;;;;;;2.00;69.47;95728.34;5010093;28;20033;-60
2021/12/18 07:55:19;;;;;;;19.27;12.05;;;;;;;2.67;67.58;95789.03;5041076;28;20178;-58
2021/12/18 07:57:45;;;;;;;20.08;10.13;;;;;;;2.86;67.01;95822.66;5009256;28;20525;-55
2021/12/18 08:00:13;;;;;;;16.80;11.13;;;;;;;2.63;67.90;95821.38;5010007;28;20041;-57
2021/12/18 08:02:40;;;;;;;21.65;12.68;;;;;;;2.55;69.19;95824.06;5009332;28;20057;-59
2021/12/18 08:05:06;;;;;;;18.88;12.68;;;;;;;2.58;68.26;95836.72;5008695;28;20416;-62
2021/12/18 08:07:32;;;;;;;24.45;13.60;;;;;;;2.46;69.03;95825.94;5040953;28;20037;-59
2021/12/18 08:09:58;;;;;;;24.40;12.38;;;;;;;2.84;67.70;95815.03;5009723;28;20556;-59
2021/12/18 08:12:24;;;;;;;17.85;12.00;;;;;;;3.25;64.83;95823.53;5009539;28;20079;-56
2021/12/18 08:14:49;;;;;;;17.75;11.82;;;;;;;3.92;63.96;95830.53;5009331;28;20030;-62
2021/12/18 08:17:15;;;;;;;19.05;12.50;;;;;;;3.71;63.09;95839.53;5009507;28;20138;-59
2021/12/18 08:19:40;;;;;;;18.65;10.52;;;;;;;3.17;64.34;95840.69;5009278;28;20334;-60
2021/12/18 08:22:06;;;;;;;18.65;12.13;;;;;;;3.67;64.51;95833.66;5009168;28;20112;-58
2021/12/18 08:24:31;;;;;;;16.83;10.57;;;;;;;5.22;60.99;95824.56;5009057;28;20026;-55
2021/12/18 08:26:57;;;;;;;18.25;10.95;;;;;;;6.96;53.36;95798.47;5008749;28;20117;-55
2021/12/18 08:29:22;;;;;;;14.65;10.15;;;;;;;8.96;47.08;95816.19;5008812;28;20048;-59
2021/12/18 08:31:48;;;;;;;16.48;9.23;;;;;;;10.39;43.88;95810.50;5008668;28;20792;-60
2021/12/18 08:34:14;;;;;;;15.20;10.02;;;;;;;10.16;42.79;95816.75;5008733;28;20108;-57
2021/12/18 08:36:39;;;;;;;17.90;10.25;;;;;;;12.06;38.70;95798.25;5008860;28;20092;-58
2021/12/18 08:39:05;;;;;;;16.27;9.93;;;;;;;14.30;34.52;95810.69;5008238;28;20492;-62
2021/12/18 08:41:33;;;;;;;18.98;11.23;;;;;;;13.69;35.27;95808.50;5008612;28;20026;-58
2021/12/18 08:43:58;;;;;;;15.15;10.88;;;;;;;14.16;34.60;95794.22;5001311;28;20489;-59
2021/12/18 08:46:24;;;;;;;14.02;10.98;;;;;;;15.80;31.38;95794.44;5005608;28;20037;-59
2021/12/18 08:48:49;;;;;;;12.65;10.32;;;;;;;16.69;29.25;95797.50;5004802;28;20045;-58
2021/12/18 08:51:15;;;;;;;13.18;11.15;;;;;;;17.57;28.55;95803.03;5005302;28;20030;-59
2021/12/18 08:53:44;;;;;;;14.13;11.52;;;;;;;13.26;33.64;95813.69;5004935;28;20041;-56
2021/12/18 08:56:09;;;;;;;13.98;11.57;;;;;;;11.33;37.13;95787.59;5005520;28;20065;-60
2021/12/18 08:58:35;;;;;;;17.45;12.35;;;;;;;12.29;36.47;95814.22;5004761;28;20489;-57
2021/12/18 09:01:01;;;;;;;13.23;9.93;;;;;;;12.86;34.70;95813.50;5004820;28;20034;-59
2021/12/18 09:03:26;;;;;;;12.45;9.40;;;;;;;10.50;38.72;95822.88;5002997;28;20509;-62
2021/12/18 09:05:54;;;;;;;12.85;9.38;;;;;;;8.73;43.22;95837.78;5006149;28;20026;-64
2021/12/18 09:08:19;;;;;;;13.15;9.20;;;;;;;7.37;47.22;95811.50;5008451;28;20053;-63
2021/12/18 09:10:45;;;;;;;13.57;8.50;;;;;;;6.64;49.18;95846.59;4998846;28;20027;-59
2021/12/18 09:13:10;;;;;;;13.50;8.77;;;;;;;5.64;49.62;95755.94;4988232;28;20128;-60
2021/12/18 09:15:36;;;;;;;13.27;9.00;;;;;;;7.97;46.50;95813.47;4995715;28;20106;-61
2021/12/18 09:18:02;;;;;;;11.90;8.07;;;;;;;11.03;38.42;95807.22;5008347;28;20086;-61
2021/12/18 09:20:27;;;;;;;13.98;8.20;;;;;;;14.40;32.77;95796.16;5008696;28;20109;-60
2021/12/18 09:22:53;;;;;;;12.02;8.45;;;;;;;15.39;31.50;95797.31;5008373;28;20515;-63
2021/12/18 09:25:18;;;;;;;12.88;9.02;;;;;;;16.33;29.18;95794.09;5007937;28;20120;-61
2021/12/18 09:27:44;;;;;;;13.95;10.07;;;;;;;15.53;30.13;95799.81;5008203;28;20030;-61
2021/12/18 09:30:12;;;;;;;11.43;8.60;;;;;;;11.01;36.38;95815.94;5008659;28;20511;-59
2021/12/18 09:32:39;;;;;;;10.45;7.47;;;;;;;9.17;40.09;95757.81;5008181;28;20034;-61
2021/12/18 09:35:05;;;;;;;13.10;8.90;;;;;;;10.03;40.10;95812.16;5008207;28;20583;-62
2021/12/18 09:37:31;;;;;;;12.15;7.60;;;;;;;9.37;41.61;95818.66;5039178;28;20901;-60
2021/12/18 09:39:56;;;;;;;10.43;7.40;;;;;;;8.20;43.88;95833.09;5007708;28;20038;-60
2021/12/18 09:42:22;;;;;;;8.95;6.68;;;;;;;7.36;45.57;95802.97;5008363;28;20041;-62
2021/12/18 09:44:50;;;;;;;9.98;6.65;;;;;;;7.09;46.72;95835.59;5008066;28;20030;-59
2021/12/18 09:47:17;;;;;;;10.90;7.80;;;;;;;6.37;48.83;95832.97;5007889;28;20044;-63
2021/12/18 09:49:43;;;;;;;12.23;7.47;;;;;;;5.67;50.91;95799.34;5007999;28;20686;-62
2021/12/18 09:52:08;;;;;;;9.68;6.68;;;;;;;5.82;51.27;95830.44;5008381;28;20073;-63
2021/12/18 09:54:33;;;;;;;9.27;6.13;;;;;;;5.73;50.55;95830.75;5008306;28;20452;-59
2021/12/18 09:56:59;;;;;;;9.93;6.30;;;;;;;5.58;51.43;95832.88;5008100;28;20525;-61
2021/12/18 09:59:24;;;;;;;10.73;7.25;;;;;;;5.03;51.84;95735.63;5008420;28;20042;-60
2021/12/18 10:01:50;;;;;;;11.60;7.43;;;;;;;5.37;52.66;95830.97;5022627;28;20334;-65
2021/12/18 10:04:27;;;;;;;10.90;6.88;;;;;;;5.17;54.25;95834.09;5008440;28;20504;-61
2021/12/18 10:06:53;;;;;;;12.15;7.47;;;;;;;6.82;51.08;95822.03;5008041;28;20049;-61
2021/12/18 10:09:21;;;;;;;9.57;6.60;;;;;;;10.48;39.98;95802.31;5008184;28;20030;-57
2021/12/18 10:11:52;;;;;;;10.73;7.93;;;;;;;12.02;36.25;95739.91;5008211;28;20036;-62
2021/12/18 10:14:19;;;;;;;12.07;8.30;;;;;;;10.47;39.59;95800.63;5007783;28;20068;-60
2021/12/18 10:16:47;;;;;;;9.75;7.05;;;;;;;8.71;42.85;95802.75;5008013;28;20084;-59
2021/12/18 10:19:28;;;;;;;11.75;7.82;;;;;;;7.85;45.32;95801.94;5011772;28;20034;-60
2021/12/18 10:22:03;;;;;;;13.57;8.10;;;;;;;7.44;47.05;95807.78;5012412;28;20475;-61
2021/12/18 10:24:31;;;;;;;13.75;6.28;;;;;;;7.15;45.71;95796.91;5011760;28;20058;-59
2021/12/18 10:26:57;;;;;;;9.73;7.38;;;;;;;8.08;44.21;95757.34;5010899;28;20037;-59
2021/12/18 10:29:29;;;;;;;12.73;6.93;;;;;;;7.60;45.39;95800.34;5011639;28;20026;-63
2021/12/18 10:31:56;;;;;;;11.05;7.30;;;;;;;11.73;38.16;95778.50;5011257;28;20594;-59
2021/12/18 10:34:27;;;;;;;7.45;5.10;;;;;;;12.45;33.32;95780.56;5011410;28;20405;-61
2021/12/18 10:37:11;;;;;;;8.63;5.97;;;;;;;10.76;37.92;95791.41;5011455;28;20041;-61
2021/12/18 10:39:58;;;;;;;7.03;5.50;;;;;;;15.20;30.00;95758.78;5011341;28;20041;-59
2021/12/18 10:42:39;;;;;;;8.18;5.93;;;;;;;17.11;26.82;95762.31;5011151;28;20038;-61
2021/12/18 10:45:18;;;;;;;6.53;4.75;;;;;;;13.76;30.64;95767.47;5043087;28;20462;-61
2021/12/18 10:47:47;;;;;;;6.45;5.25;;;;;;;11.85;33.32;95771.00;5011387;28;20071;-61
2021/12/18 10:50:37;;;;;;;8.45;5.65;;;;;;;13.95;32.57;95759.31;5010707;28;20420;-63
2021/12/18 10:53:13;;;;;;;9.93;6.25;;;;;;;14.28;31.12;95751.13;5010998;28;20025;-62
2021/12/18 10:55:53;;;;;;;10.70;6.28;;;;;;;12.23;32.72;95760.25;5011074;28;20030;-63
2021/12/18 10:58:29;;;;;;;8.70;6.88;;;;;;;11.29;34.18;95742.22;5010644;28;20421;-64
2021/12/18 11:00:58;;;;;;;10.48;6.13;;;;;;;10.13;36.98;95758.44;5010894;28;20033;-62
2021/12/18 11:13:48;;;;;;;;;;;;;;;;;;;;;
2021/12/18 11:39:16;;;;;;;;;;;;;;;;;;;;;
2021/12/18 12:25:12;;;;;;;6.72;4.63;;;;;;;13.14;34.05;95760.06;4869176;29;20154;-66
2021/12/18 12:27:42;;;;;;;7.28;4.97;;;;;;;12.71;35.12;95760.03;4868137;29;20430;-60
2021/12/18 12:30:39;;;;;;;9.13;6.05;;;;;;;14.37;32.26;95715.94;4853711;29;20042;-62
2021/12/18 12:33:10;;;;;;;7.38;4.57;;;;;;;13.85;31.94;95763.44;4869357;29;20541;-58
2021/12/18 12:36:07;;;;;;;6.32;4.10;;;;;;;11.76;35.34;95778.34;4869559;29;20077;-61
2021/12/18 12:38:42;;;;;;;8.52;5.20;;;;;;;10.21;38.09;95783.84;4831768;29;20077;-58
2021/12/18 12:41:24;;;;;;;7.68;5.10;;;;;;;9.05;40.35;95785.81;4817405;29;20196;-61
2021/12/18 12:43:51;;;;;;;9.13;6.10;;;;;;;9.42;39.53;95784.16;4832524;29;20140;-58
2021/12/18 12:46:18;;;;;;;9.35;5.45;;;;;;;8.31;41.54;95791.53;4832305;29;20044;-53
2021/12/18 12:49:01;;;;;;;9.45;5.72;;;;;;;7.18;43.99;95796.81;4831816;29;20058;-57
2021/12/18 12:52:00;;;;;;;8.98;5.35;;;;;;;6.50;45.83;95797.53;4856696;29;20044;-58
2021/12/18 12:54:38;;;;;;;9.45;5.45;;;;;;;5.94;48.27;95801.91;4856623;29;20110;-56
2021/12/18 12:57:28;;;;;;;11.13;5.70;;;;;;;5.71;49.90;95806.03;4853663;29;20060;-57
2021/12/18 13:00:17;;;;;;;19.25;6.13;;;;;;;5.40;52.22;95807.84;4945073;29;20031;-66
2021/12/18 13:02:52;;;;;;;8.68;4.82;;;;;;;4.95;53.21;95814.25;5002350;28;20038;-61
2021/12/18 13:05:21;;;;;;;9.00;4.97;;;;;;;4.78;54.68;95810.44;4997634;28;20077;-57
2021/12/18 13:07:54;;;;;;;7.80;5.13;;;;;;;4.94;53.89;95812.59;5003928;28;20521;-57
2021/12/18 13:10:23;;;;;;;7.07;4.72;;;;;;;4.75;54.16;95784.97;5003405;28;20030;-61
2021/12/18 13:13:04;;;;;;;9.43;5.30;;;;;;;4.28;55.55;95737.72;5003475;28;20029;-58
2021/12/18 13:15:53;;;;;;;7.60;4.53;;;;;;;4.27;57.40;95813.50;5030319;28;20395;-62
2021/12/18 13:18:25;;;;;;;9.18;6.00;;;;;;;4.22;58.11;95818.72;5045632;28;20411;-60
2021/12/18 13:20:57;;;;;;;7.70;4.82;;;;;;;4.03;59.81;95820.06;5045405;28;20056;-61
2021/12/18 13:23:38;;;;;;;10.02;6.35;;;;;;;3.77;60.43;95821.53;5045144;28;20037;-59
2021/12/18 13:26:07;;;;;;;9.00;5.83;;;;;;;3.56;61.45;95819.44;5043877;28;20087;-56
2021/12/18 13:28:34;;;;;;;9.70;5.72;;;;;;;3.11;62.46;95777.94;5014008;28;20423;-59
2021/12/18 13:30:59;;;;;;;12.05;7.18;;;;;;;3.30;62.40;95828.53;5031313;28;20025;-60
2021/12/18 13:33:30;;;;;;;10.52;6.32;;;;;;;3.37;61.62;95834.34;5031441;28;20051;-58
2021/12/18 13:36:01;;;;;;;10.25;5.93;;;;;;;3.44;60.57;95825.66;5031028;28;20084;-59
2021/12/18 13:42:10;;;;;;;11.60;6.78;;;;;;;3.09;59.95;95817.91;5031064;28;20432;-64
2021/12/18 13:44:44;;;;;;;11.82;6.00;;;;;;;2.91;59.90;95811.47;5031332;28;20029;-60
2021/12/18 13:47:22;;;;;;;11.43;5.50;;;;;;;2.87;60.25;95814.09;5031086;28;20687;-67